sensor_id;sensor_type;location;lat;lon;timestamp;P1;durP1;ratioP1;P2;durP2;ratioP2
81026;SDS011;70506;49.320;8.446;2024-02-21T00:01:41;4.65;;;2.03;;
81026;SDS011;70506;49.320;8.446;2024-02-21T00:04:09;8.17;;;2.30;;
81026;SDS011;70506;49.320;8.446;2024-02-21T00:06:37;6.70;;;1.88;;
81026;SDS011;70506;49.320;8.446;2024-02-21T00:09:03;7.78;;;1.70;;
81026;SDS011;70506;49.320;8.446;2024-02-21T00:11:28;6.53;;;2.00;;
81026;SDS011;70506;49.320;8.446;2024-02-21T00:13:53;3.30;;;1.77;;
81026;SDS011;70506;49.320;8.446;2024-02-21T00:16:19;7.07;;;2.10;;
81026;SDS011;70506;49.320;8.446;2024-02-21T00:18:45;7.13;;;2.10;;
81026;SDS011;70506;49.320;8.446;2024-02-21T00:21:10;6.90;;;2.42;;
81026;SDS011;70506;49.320;8.446;2024-02-21T00:23:40;8.57;;;2.20;;
81026;SDS011;70506;49.320;8.446;2024-02-21T00:26:05;7.35;;;1.80;;
81026;SDS011;70506;49.320;8.446;2024-02-21T00:28:31;6.23;;;2.10;;
81026;SDS011;70506;49.320;8.446;2024-02-21T00:30:56;14.50;;;2.57;;
81026;SDS011;70506;49.320;8.446;2024-02-21T00:33:21;11.33;;;2.00;;
81026;SDS011;70506;49.320;8.446;2024-02-21T00:35:46;8.47;;;2.20;;
81026;SDS011;70506;49.320;8.446;2024-02-21T00:38:12;7.40;;;2.30;;
81026;SDS011;70506;49.320;8.446;2024-02-21T00:40:37;2.92;;;1.73;;
81026;SDS011;70506;49.320;8.446;2024-02-21T00:43:02;11.17;;;2.23;;
81026;SDS011;70506;49.320;8.446;2024-02-21T00:45:28;6.57;;;1.75;;
81026;SDS011;70506;49.320;8.446;2024-02-21T00:47:53;8.13;;;2.05;;
81026;SDS011;70506;49.320;8.446;2024-02-21T00:50:18;5.87;;;2.07;;
81026;SDS011;70506;49.320;8.446;2024-02-21T00:52:44;7.83;;;2.20;;
81026;SDS011;70506;49.320;8.446;2024-02-21T00:55:09;5.07;;;2.10;;
81026;SDS011;70506;49.320;8.446;2024-02-21T00:57:35;5.32;;;2.55;;
81026;SDS011;70506;49.320;8.446;2024-02-21T01:00:00;8.32;;;2.53;;
81026;SDS011;70506;49.320;8.446;2024-02-21T01:04:52;11.77;;;2.47;;
81026;SDS011;70506;49.320;8.446;2024-02-21T01:07:17;6.87;;;1.80;;
81026;SDS011;70506;49.320;8.446;2024-02-21T01:09:42;6.30;;;2.30;;
81026;SDS011;70506;49.320;8.446;2024-02-21T01:12:07;6.07;;;2.00;;
81026;SDS011;70506;49.320;8.446;2024-02-21T01:14:33;5.67;;;2.13;;
81026;SDS011;70506;49.320;8.446;2024-02-21T01:16:58;7.83;;;2.50;;
81026;SDS011;70506;49.320;8.446;2024-02-21T01:19:23;7.23;;;2.20;;
81026;SDS011;70506;49.320;8.446;2024-02-21T01:21:48;8.40;;;2.50;;
81026;SDS011;70506;49.320;8.446;2024-02-21T01:24:14;3.77;;;1.90;;
81026;SDS011;70506;49.320;8.446;2024-02-21T01:26:40;6.23;;;2.17;;
81026;SDS011;70506;49.320;8.446;2024-02-21T01:29:06;8.73;;;2.70;;
81026;SDS011;70506;49.320;8.446;2024-02-21T01:31:31;6.63;;;2.30;;
81026;SDS011;70506;49.320;8.446;2024-02-21T01:33:56;7.27;;;2.50;;
81026;SDS011;70506;49.320;8.446;2024-02-21T01:36:23;11.13;;;2.78;;
81026;SDS011;70506;49.320;8.446;2024-02-21T01:38:48;4.05;;;1.58;;
81026;SDS011;70506;49.320;8.446;2024-02-21T01:41:13;3.47;;;1.97;;
81026;SDS011;70506;49.320;8.446;2024-02-21T01:43:38;8.57;;;2.50;;
81026;SDS011;70506;49.320;8.446;2024-02-21T01:46:04;5.73;;;2.13;;
81026;SDS011;70506;49.320;8.446;2024-02-21T01:48:29;4.68;;;2.58;;
81026;SDS011;70506;49.320;8.446;2024-02-21T01:50:54;8.70;;;2.22;;
81026;SDS011;70506;49.320;8.446;2024-02-21T01:53:30;5.80;;;2.53;;
81026;SDS011;70506;49.320;8.446;2024-02-21T01:55:57;6.50;;;2.05;;
81026;SDS011;70506;49.320;8.446;2024-02-21T01:58:23;5.03;;;2.05;;
81026;SDS011;70506;49.320;8.446;2024-02-21T02:00:49;6.45;;;2.08;;
81026;SDS011;70506;49.320;8.446;2024-02-21T02:03:15;3.85;;;1.83;;
81026;SDS011;70506;49.320;8.446;2024-02-21T02:05:46;7.00;;;2.17;;
81026;SDS011;70506;49.320;8.446;2024-02-21T02:08:13;4.47;;;1.88;;
81026;SDS011;70506;49.320;8.446;2024-02-21T02:10:39;9.93;;;2.20;;
81026;SDS011;70506;49.320;8.446;2024-02-21T02:13:05;11.07;;;2.55;;
81026;SDS011;70506;49.320;8.446;2024-02-21T02:15:37;4.97;;;1.95;;
81026;SDS011;70506;49.320;8.446;2024-02-21T02:18:06;10.38;;;2.63;;
81026;SDS011;70506;49.320;8.446;2024-02-21T02:20:31;4.22;;;2.22;;
81026;SDS011;70506;49.320;8.446;2024-02-21T02:22:57;5.53;;;1.93;;
81026;SDS011;70506;49.320;8.446;2024-02-21T02:25:24;4.63;;;1.88;;
81026;SDS011;70506;49.320;8.446;2024-02-21T02:27:50;8.77;;;2.22;;
81026;SDS011;70506;49.320;8.446;2024-02-21T02:30:15;5.37;;;2.30;;
81026;SDS011;70506;49.320;8.446;2024-02-21T02:32:44;5.70;;;2.40;;
81026;SDS011;70506;49.320;8.446;2024-02-21T02:35:10;6.72;;;2.10;;
81026;SDS011;70506;49.320;8.446;2024-02-21T02:37:35;4.87;;;1.90;;
81026;SDS011;70506;49.320;8.446;2024-02-21T02:40:00;8.18;;;2.30;;
81026;SDS011;70506;49.320;8.446;2024-02-21T02:42:26;9.27;;;2.73;;
81026;SDS011;70506;49.320;8.446;2024-02-21T02:44:51;8.02;;;2.15;;
81026;SDS011;70506;49.320;8.446;2024-02-21T02:47:17;8.57;;;1.80;;
81026;SDS011;70506;49.320;8.446;2024-02-21T02:49:42;6.67;;;2.00;;
81026;SDS011;70506;49.320;8.446;2024-02-21T02:52:08;10.43;;;2.40;;
81026;SDS011;70506;49.320;8.446;2024-02-21T02:54:34;4.73;;;2.47;;
81026;SDS011;70506;49.320;8.446;2024-02-21T02:56:59;5.33;;;2.37;;
81026;SDS011;70506;49.320;8.446;2024-02-21T02:59:24;6.60;;;2.33;;
81026;SDS011;70506;49.320;8.446;2024-02-21T03:01:50;6.50;;;2.03;;
81026;SDS011;70506;49.320;8.446;2024-02-21T03:04:15;9.73;;;2.40;;
81026;SDS011;70506;49.320;8.446;2024-02-21T03:06:40;5.40;;;1.90;;
81026;SDS011;70506;49.320;8.446;2024-02-21T03:09:05;6.77;;;2.50;;
81026;SDS011;70506;49.320;8.446;2024-02-21T03:11:33;12.48;;;2.35;;
81026;SDS011;70506;49.320;8.446;2024-02-21T03:13:59;7.70;;;3.08;;
81026;SDS011;70506;49.320;8.446;2024-02-21T03:16:24;3.30;;;1.70;;
81026;SDS011;70506;49.320;8.446;2024-02-21T03:18:49;4.00;;;1.95;;
81026;SDS011;70506;49.320;8.446;2024-02-21T03:21:15;6.37;;;2.27;;
81026;SDS011;70506;49.320;8.446;2024-02-21T03:23:40;7.93;;;2.20;;
81026;SDS011;70506;49.320;8.446;2024-02-21T03:26:05;7.53;;;2.00;;
81026;SDS011;70506;49.320;8.446;2024-02-21T03:28:31;5.43;;;2.20;;
81026;SDS011;70506;49.320;8.446;2024-02-21T03:30:56;6.13;;;2.00;;
81026;SDS011;70506;49.320;8.446;2024-02-21T03:33:21;11.93;;;2.57;;
81026;SDS011;70506;49.320;8.446;2024-02-21T03:35:48;11.75;;;2.25;;
81026;SDS011;70506;49.320;8.446;2024-02-21T03:38:13;6.40;;;2.30;;
81026;SDS011;70506;49.320;8.446;2024-02-21T03:40:39;7.70;;;2.50;;
81026;SDS011;70506;49.320;8.446;2024-02-21T03:43:04;3.97;;;1.63;;
81026;SDS011;70506;49.320;8.446;2024-02-21T03:45:29;7.70;;;2.00;;
81026;SDS011;70506;49.320;8.446;2024-02-21T03:47:55;5.70;;;1.70;;
81026;SDS011;70506;49.320;8.446;2024-02-21T03:50:20;6.05;;;2.17;;
81026;SDS011;70506;49.320;8.446;2024-02-21T03:52:46;4.60;;;1.85;;
81026;SDS011;70506;49.320;8.446;2024-02-21T03:55:11;7.97;;;2.20;;
81026;SDS011;70506;49.320;8.446;2024-02-21T03:57:36;3.65;;;1.48;;
81026;SDS011;70506;49.320;8.446;2024-02-21T04:00:02;11.20;;;2.63;;
81026;SDS011;70506;49.320;8.446;2024-02-21T04:04:53;9.63;;;2.20;;
81026;SDS011;70506;49.320;8.446;2024-02-21T04:07:19;5.67;;;1.87;;
81026;SDS011;70506;49.320;8.446;2024-02-21T04:09:44;6.82;;;1.98;;
81026;SDS011;70506;49.320;8.446;2024-02-21T04:12:09;4.60;;;1.58;;
81026;SDS011;70506;49.320;8.446;2024-02-21T04:14:35;5.50;;;2.33;;
81026;SDS011;70506;49.320;8.446;2024-02-21T04:17:00;5.78;;;1.85;;
81026;SDS011;70506;49.320;8.446;2024-02-21T04:19:26;4.77;;;1.80;;
81026;SDS011;70506;49.320;8.446;2024-02-21T04:21:51;5.78;;;1.98;;
81026;SDS011;70506;49.320;8.446;2024-02-21T04:24:17;8.40;;;1.97;;
81026;SDS011;70506;49.320;8.446;2024-02-21T04:26:42;7.25;;;2.05;;
81026;SDS011;70506;49.320;8.446;2024-02-21T04:29:08;6.63;;;2.67;;
81026;SDS011;70506;49.320;8.446;2024-02-21T04:31:34;5.97;;;1.85;;
81026;SDS011;70506;49.320;8.446;2024-02-21T04:33:59;6.03;;;1.70;;
81026;SDS011;70506;49.320;8.446;2024-02-21T04:36:24;4.87;;;2.10;;
81026;SDS011;70506;49.320;8.446;2024-02-21T04:38:49;7.90;;;2.37;;
81026;SDS011;70506;49.320;8.446;2024-02-21T04:41:15;8.57;;;2.17;;
81026;SDS011;70506;49.320;8.446;2024-02-21T04:43:40;5.90;;;1.75;;
81026;SDS011;70506;49.320;8.446;2024-02-21T04:46:06;4.93;;;2.05;;
81026;SDS011;70506;49.320;8.446;2024-02-21T04:48:31;6.53;;;2.10;;
81026;SDS011;70506;49.320;8.446;2024-02-21T04:50:56;7.27;;;2.03;;
81026;SDS011;70506;49.320;8.446;2024-02-21T04:53:22;4.70;;;1.87;;
81026;SDS011;70506;49.320;8.446;2024-02-21T04:55:47;9.03;;;2.03;;
81026;SDS011;70506;49.320;8.446;2024-02-21T04:58:12;7.20;;;1.97;;
81026;SDS011;70506;49.320;8.446;2024-02-21T05:00:37;3.90;;;1.90;;
81026;SDS011;70506;49.320;8.446;2024-02-21T05:03:03;4.53;;;2.03;;
81026;SDS011;70506;49.320;8.446;2024-02-21T05:05:28;5.93;;;2.17;;
81026;SDS011;70506;49.320;8.446;2024-02-21T05:07:54;12.65;;;2.10;;
81026;SDS011;70506;49.320;8.446;2024-02-21T05:10:19;6.70;;;2.10;;
81026;SDS011;70506;49.320;8.446;2024-02-21T05:12:45;6.57;;;2.20;;
81026;SDS011;70506;49.320;8.446;2024-02-21T05:15:10;9.30;;;2.03;;
81026;SDS011;70506;49.320;8.446;2024-02-21T05:17:36;6.33;;;2.87;;
81026;SDS011;70506;49.320;8.446;2024-02-21T05:20:01;6.47;;;2.73;;
81026;SDS011;70506;49.320;8.446;2024-02-21T05:22:26;4.78;;;2.30;;
81026;SDS011;70506;49.320;8.446;2024-02-21T05:24:52;5.07;;;1.90;;
81026;SDS011;70506;49.320;8.446;2024-02-21T05:27:17;5.67;;;2.20;;
81026;SDS011;70506;49.320;8.446;2024-02-21T05:29:42;8.90;;;2.63;;
81026;SDS011;70506;49.320;8.446;2024-02-21T05:32:08;3.63;;;2.07;;
81026;SDS011;70506;49.320;8.446;2024-02-21T05:34:33;10.53;;;2.90;;
81026;SDS011;70506;49.320;8.446;2024-02-21T05:36:58;5.43;;;2.83;;
81026;SDS011;70506;49.320;8.446;2024-02-21T05:39:25;4.55;;;2.63;;
81026;SDS011;70506;49.320;8.446;2024-02-21T05:41:50;6.15;;;2.40;;
81026;SDS011;70506;49.320;8.446;2024-02-21T05:44:16;10.63;;;2.92;;
81026;SDS011;70506;49.320;8.446;2024-02-21T05:46:42;6.93;;;2.85;;
81026;SDS011;70506;49.320;8.446;2024-02-21T05:49:07;5.97;;;2.47;;
81026;SDS011;70506;49.320;8.446;2024-02-21T05:51:33;4.53;;;2.45;;
81026;SDS011;70506;49.320;8.446;2024-02-21T05:53:58;5.05;;;2.17;;
81026;SDS011;70506;49.320;8.446;2024-02-21T05:56:24;3.80;;;2.28;;
81026;SDS011;70506;49.320;8.446;2024-02-21T05:58:49;4.72;;;2.42;;
81026;SDS011;70506;49.320;8.446;2024-02-21T06:01:14;9.40;;;2.50;;
81026;SDS011;70506;49.320;8.446;2024-02-21T06:03:40;10.33;;;3.07;;
81026;SDS011;70506;49.320;8.446;2024-02-21T06:06:05;5.20;;;2.38;;
81026;SDS011;70506;49.320;8.446;2024-02-21T06:08:31;6.63;;;2.60;;
81026;SDS011;70506;49.320;8.446;2024-02-21T06:10:56;4.90;;;2.17;;
81026;SDS011;70506;49.320;8.446;2024-02-21T06:13:21;4.77;;;2.27;;
81026;SDS011;70506;49.320;8.446;2024-02-21T06:15:48;6.97;;;3.08;;
81026;SDS011;70506;49.320;8.446;2024-02-21T06:18:15;5.93;;;2.35;;
81026;SDS011;70506;49.320;8.446;2024-02-21T06:20:40;6.95;;;2.17;;
81026;SDS011;70506;49.320;8.446;2024-02-21T06:23:06;7.75;;;2.30;;
81026;SDS011;70506;49.320;8.446;2024-02-21T06:25:32;7.80;;;2.63;;
81026;SDS011;70506;49.320;8.446;2024-02-21T06:27:57;7.40;;;2.23;;
81026;SDS011;70506;49.320;8.446;2024-02-21T06:30:22;5.97;;;2.20;;
81026;SDS011;70506;49.320;8.446;2024-02-21T06:32:48;8.23;;;2.70;;
81026;SDS011;70506;49.320;8.446;2024-02-21T06:35:13;4.90;;;2.17;;
81026;SDS011;70506;49.320;8.446;2024-02-21T06:37:38;5.10;;;2.20;;
81026;SDS011;70506;49.320;8.446;2024-02-21T06:40:04;10.38;;;2.63;;
81026;SDS011;70506;49.320;8.446;2024-02-21T06:42:30;4.63;;;2.53;;
81026;SDS011;70506;49.320;8.446;2024-02-21T06:44:55;8.83;;;2.53;;
81026;SDS011;70506;49.320;8.446;2024-02-21T06:47:21;12.40;;;2.88;;
81026;SDS011;70506;49.320;8.446;2024-02-21T06:49:49;8.27;;;2.65;;
81026;SDS011;70506;49.320;8.446;2024-02-21T06:52:17;10.95;;;2.97;;
81026;SDS011;70506;49.320;8.446;2024-02-21T06:54:45;6.80;;;2.95;;
81026;SDS011;70506;49.320;8.446;2024-02-21T06:57:10;7.35;;;2.97;;
81026;SDS011;70506;49.320;8.446;2024-02-21T06:59:35;4.33;;;2.30;;
81026;SDS011;70506;49.320;8.446;2024-02-21T07:02:01;8.33;;;2.77;;
81026;SDS011;70506;49.320;8.446;2024-02-21T07:04:26;13.13;;;2.78;;
81026;SDS011;70506;49.320;8.446;2024-02-21T07:06:52;6.75;;;3.03;;
81026;SDS011;70506;49.320;8.446;2024-02-21T07:09:17;7.30;;;2.50;;
81026;SDS011;70506;49.320;8.446;2024-02-21T07:11:43;5.18;;;2.60;;
81026;SDS011;70506;49.320;8.446;2024-02-21T07:14:08;7.05;;;3.17;;
81026;SDS011;70506;49.320;8.446;2024-02-21T07:16:33;6.67;;;2.90;;
81026;SDS011;70506;49.320;8.446;2024-02-21T07:18:59;4.87;;;2.20;;
81026;SDS011;70506;49.320;8.446;2024-02-21T07:21:24;6.13;;;2.50;;
81026;SDS011;70506;49.320;8.446;2024-02-21T07:23:49;5.57;;;2.60;;
81026;SDS011;70506;49.320;8.446;2024-02-21T07:26:15;4.50;;;2.35;;
81026;SDS011;70506;49.320;8.446;2024-02-21T07:28:41;7.13;;;2.70;;
81026;SDS011;70506;49.320;8.446;2024-02-21T07:31:06;6.30;;;2.60;;
81026;SDS011;70506;49.320;8.446;2024-02-21T07:33:31;7.43;;;2.83;;
81026;SDS011;70506;49.320;8.446;2024-02-21T07:35:57;8.27;;;2.55;;
81026;SDS011;70506;49.320;8.446;2024-02-21T07:38:23;10.30;;;2.47;;
81026;SDS011;70506;49.320;8.446;2024-02-21T07:40:48;13.40;;;3.03;;
81026;SDS011;70506;49.320;8.446;2024-02-21T07:43:13;7.77;;;2.70;;
81026;SDS011;70506;49.320;8.446;2024-02-21T07:45:39;6.57;;;2.30;;
81026;SDS011;70506;49.320;8.446;2024-02-21T07:48:05;5.95;;;2.33;;
81026;SDS011;70506;49.320;8.446;2024-02-21T07:50:30;5.13;;;2.60;;
81026;SDS011;70506;49.320;8.446;2024-02-21T07:52:56;6.97;;;2.63;;
81026;SDS011;70506;49.320;8.446;2024-02-21T07:55:21;8.37;;;2.33;;
81026;SDS011;70506;49.320;8.446;2024-02-21T07:57:46;8.57;;;2.63;;
81026;SDS011;70506;49.320;8.446;2024-02-21T08:00:12;6.00;;;3.03;;
81026;SDS011;70506;49.320;8.446;2024-02-21T08:05:09;5.50;;;2.30;;
81026;SDS011;70506;49.320;8.446;2024-02-21T08:07:37;5.05;;;2.63;;
81026;SDS011;70506;49.320;8.446;2024-02-21T08:10:02;6.23;;;2.60;;
81026;SDS011;70506;49.320;8.446;2024-02-21T08:12:28;4.88;;;2.72;;
81026;SDS011;70506;49.320;8.446;2024-02-21T08:14:53;7.83;;;2.47;;
81026;SDS011;70506;49.320;8.446;2024-02-21T08:17:18;4.63;;;2.47;;
81026;SDS011;70506;49.320;8.446;2024-02-21T08:19:45;7.37;;;2.63;;
81026;SDS011;70506;49.320;8.446;2024-02-21T08:24:37;8.65;;;2.33;;
81026;SDS011;70506;49.320;8.446;2024-02-21T08:27:02;6.68;;;2.70;;
81026;SDS011;70506;49.320;8.446;2024-02-21T08:29:28;5.22;;;2.75;;
81026;SDS011;70506;49.320;8.446;2024-02-21T08:31:54;11.27;;;2.47;;
81026;SDS011;70506;49.320;8.446;2024-02-21T08:34:19;4.03;;;2.27;;
81026;SDS011;70506;49.320;8.446;2024-02-21T08:36:44;9.90;;;2.70;;
81026;SDS011;70506;49.320;8.446;2024-02-21T08:39:09;8.40;;;2.53;;
81026;SDS011;70506;49.320;8.446;2024-02-21T08:41:35;8.70;;;2.13;;
81026;SDS011;70506;49.320;8.446;2024-02-21T08:44:00;12.07;;;2.72;;
81026;SDS011;70506;49.320;8.446;2024-02-21T08:46:26;10.05;;;2.30;;
81026;SDS011;70506;49.320;8.446;2024-02-21T08:48:53;5.32;;;2.42;;
81026;SDS011;70506;49.320;8.446;2024-02-21T08:51:19;5.80;;;2.22;;
81026;SDS011;70506;49.320;8.446;2024-02-21T08:53:45;6.90;;;2.30;;
81026;SDS011;70506;49.320;8.446;2024-02-21T08:56:10;6.53;;;2.35;;
81026;SDS011;70506;49.320;8.446;2024-02-21T08:58:36;4.28;;;1.92;;
81026;SDS011;70506;49.320;8.446;2024-02-21T09:01:04;7.75;;;2.40;;
81026;SDS011;70506;49.320;8.446;2024-02-21T09:03:31;4.45;;;2.38;;
81026;SDS011;70506;49.320;8.446;2024-02-21T09:05:57;5.35;;;2.38;;
81026;SDS011;70506;49.320;8.446;2024-02-21T09:08:22;5.63;;;2.90;;
81026;SDS011;70506;49.320;8.446;2024-02-21T09:10:49;5.88;;;1.83;;
81026;SDS011;70506;49.320;8.446;2024-02-21T09:13:14;7.07;;;2.00;;
81026;SDS011;70506;49.320;8.446;2024-02-21T09:15:39;5.63;;;2.20;;
81026;SDS011;70506;49.320;8.446;2024-02-21T09:18:05;3.83;;;2.08;;
81026;SDS011;70506;49.320;8.446;2024-02-21T09:20:30;5.00;;;2.08;;
81026;SDS011;70506;49.320;8.446;2024-02-21T09:22:56;9.65;;;2.15;;
81026;SDS011;70506;49.320;8.446;2024-02-21T09:25:21;6.82;;;2.20;;
81026;SDS011;70506;49.320;8.446;2024-02-21T09:27:47;11.52;;;2.85;;
81026;SDS011;70506;49.320;8.446;2024-02-21T09:30:12;4.57;;;1.70;;
81026;SDS011;70506;49.320;8.446;2024-02-21T09:32:38;10.70;;;1.73;;
81026;SDS011;70506;49.320;8.446;2024-02-21T09:35:03;6.38;;;1.60;;
81026;SDS011;70506;49.320;8.446;2024-02-21T09:37:30;3.75;;;1.65;;
81026;SDS011;70506;49.320;8.446;2024-02-21T09:39:55;9.95;;;2.15;;
81026;SDS011;70506;49.320;8.446;2024-02-21T09:42:21;6.07;;;2.00;;
81026;SDS011;70506;49.320;8.446;2024-02-21T09:44:49;5.78;;;1.95;;
81026;SDS011;70506;49.320;8.446;2024-02-21T09:47:17;4.78;;;1.67;;
81026;SDS011;70506;49.320;8.446;2024-02-21T09:49:44;4.50;;;1.55;;
81026;SDS011;70506;49.320;8.446;2024-02-21T09:52:10;4.22;;;1.65;;
81026;SDS011;70506;49.320;8.446;2024-02-21T09:54:38;5.32;;;1.80;;
81026;SDS011;70506;49.320;8.446;2024-02-21T09:57:05;4.38;;;1.70;;
81026;SDS011;70506;49.320;8.446;2024-02-21T09:59:31;6.15;;;2.03;;
81026;SDS011;70506;49.320;8.446;2024-02-21T10:01:57;5.13;;;1.90;;
81026;SDS011;70506;49.320;8.446;2024-02-21T10:04:25;3.90;;;1.67;;
81026;SDS011;70506;49.320;8.446;2024-02-21T10:06:50;7.40;;;1.60;;
81026;SDS011;70506;49.320;8.446;2024-02-21T10:11:48;5.90;;;1.77;;
81026;SDS011;70506;49.320;8.446;2024-02-21T10:14:14;10.02;;;1.90;;
81026;SDS011;70506;49.320;8.446;2024-02-21T10:16:40;6.85;;;1.58;;
81026;SDS011;70506;49.320;8.446;2024-02-21T10:19:05;5.70;;;1.40;;
81026;SDS011;70506;49.320;8.446;2024-02-21T10:21:31;6.10;;;1.30;;
81026;SDS011;70506;49.320;8.446;2024-02-21T10:23:56;5.27;;;1.17;;
81026;SDS011;70506;49.320;8.446;2024-02-21T10:26:21;6.30;;;1.30;;
81026;SDS011;70506;49.320;8.446;2024-02-21T10:28:47;9.85;;;1.70;;
81026;SDS011;70506;49.320;8.446;2024-02-21T10:31:26;4.50;;;1.30;;
81026;SDS011;70506;49.320;8.446;2024-02-21T10:33:55;3.17;;;1.30;;
81026;SDS011;70506;49.320;8.446;2024-02-21T10:36:21;4.80;;;1.40;;
81026;SDS011;70506;49.320;8.446;2024-02-21T10:38:47;6.07;;;1.30;;
81026;SDS011;70506;49.320;8.446;2024-02-21T10:41:13;4.43;;;1.33;;
81026;SDS011;70506;49.320;8.446;2024-02-21T10:43:39;6.20;;;1.48;;
81026;SDS011;70506;49.320;8.446;2024-02-21T10:46:08;3.03;;;1.80;;
81026;SDS011;70506;49.320;8.446;2024-02-21T10:48:44;2.97;;;1.20;;
81026;SDS011;70506;49.320;8.446;2024-02-21T10:51:17;3.78;;;1.30;;
81026;SDS011;70506;49.320;8.446;2024-02-21T10:54:10;7.05;;;1.35;;
81026;SDS011;70506;49.320;8.446;2024-02-21T10:56:41;2.90;;;1.38;;
81026;SDS011;70506;49.320;8.446;2024-02-21T10:59:07;5.45;;;1.40;;
81026;SDS011;70506;49.320;8.446;2024-02-21T11:01:33;3.50;;;1.60;;
81026;SDS011;70506;49.320;8.446;2024-02-21T11:04:04;3.42;;;1.65;;
81026;SDS011;70506;49.320;8.446;2024-02-21T11:06:31;2.58;;;1.38;;
81026;SDS011;70506;49.320;8.446;2024-02-21T11:11:29;2.70;;;1.23;;
81026;SDS011;70506;49.320;8.446;2024-02-21T11:14:31;4.65;;;1.38;;
81026;SDS011;70506;49.320;8.446;2024-02-21T11:16:51;3.35;;;1.35;;
81026;SDS011;70506;49.320;8.446;2024-02-21T11:19:20;7.07;;;1.83;;
81026;SDS011;70506;49.320;8.446;2024-02-21T11:21:52;2.60;;;1.33;;
81026;SDS011;70506;49.320;8.446;2024-02-21T11:24:32;3.08;;;1.40;;
81026;SDS011;70506;49.320;8.446;2024-02-21T11:27:19;5.38;;;1.42;;
81026;SDS011;70506;49.320;8.446;2024-02-21T11:29:46;7.15;;;1.85;;
81026;SDS011;70506;49.320;8.446;2024-02-21T11:32:15;2.92;;;1.27;;
81026;SDS011;70506;49.320;8.446;2024-02-21T11:34:41;3.80;;;1.33;;
81026;SDS011;70506;49.320;8.446;2024-02-21T11:37:17;7.53;;;1.30;;
81026;SDS011;70506;49.320;8.446;2024-02-21T11:39:43;5.30;;;1.45;;
81026;SDS011;70506;49.320;8.446;2024-02-21T11:42:08;2.87;;;1.20;;
81026;SDS011;70506;49.320;8.446;2024-02-21T11:44:36;4.30;;;1.25;;
81026;SDS011;70506;49.320;8.446;2024-02-21T11:47:03;9.23;;;1.85;;
81026;SDS011;70506;49.320;8.446;2024-02-21T11:49:29;2.40;;;0.93;;
81026;SDS011;70506;49.320;8.446;2024-02-21T11:51:58;5.80;;;1.27;;
81026;SDS011;70506;49.320;8.446;2024-02-21T11:54:28;4.40;;;1.50;;
81026;SDS011;70506;49.320;8.446;2024-02-21T11:56:54;2.93;;;1.23;;
81026;SDS011;70506;49.320;8.446;2024-02-21T11:59:19;3.38;;;1.13;;
81026;SDS011;70506;49.320;8.446;2024-02-21T12:01:44;2.00;;;1.00;;
81026;SDS011;70506;49.320;8.446;2024-02-21T12:04:10;3.75;;;1.20;;
81026;SDS011;70506;49.320;8.446;2024-02-21T12:06:38;2.38;;;1.38;;
81026;SDS011;70506;49.320;8.446;2024-02-21T12:09:07;4.10;;;1.33;;
81026;SDS011;70506;49.320;8.446;2024-02-21T12:11:34;4.82;;;1.50;;
81026;SDS011;70506;49.320;8.446;2024-02-21T12:14:00;4.70;;;1.25;;
81026;SDS011;70506;49.320;8.446;2024-02-21T12:16:30;6.18;;;1.48;;
81026;SDS011;70506;49.320;8.446;2024-02-21T12:21:29;2.72;;;1.17;;
81026;SDS011;70506;49.320;8.446;2024-02-21T12:23:55;5.80;;;1.40;;
81026;SDS011;70506;49.320;8.446;2024-02-21T12:26:21;2.83;;;1.20;;
81026;SDS011;70506;49.320;8.446;2024-02-21T12:31:12;3.73;;;1.20;;
81026;SDS011;70506;49.320;8.446;2024-02-21T12:33:38;6.10;;;1.45;;
81026;SDS011;70506;49.320;8.446;2024-02-21T12:36:03;3.53;;;1.17;;
81026;SDS011;70506;49.320;8.446;2024-02-21T12:38:29;4.50;;;1.25;;
81026;SDS011;70506;49.320;8.446;2024-02-21T12:40:54;7.18;;;1.23;;
81026;SDS011;70506;49.320;8.446;2024-02-21T12:43:20;5.82;;;1.38;;
81026;SDS011;70506;49.320;8.446;2024-02-21T12:45:47;4.97;;;1.70;;
81026;SDS011;70506;49.320;8.446;2024-02-21T12:48:13;3.65;;;1.20;;
81026;SDS011;70506;49.320;8.446;2024-02-21T12:50:39;5.07;;;1.13;;
81026;SDS011;70506;49.320;8.446;2024-02-21T12:53:05;2.72;;;0.93;;
81026;SDS011;70506;49.320;8.446;2024-02-21T12:55:30;2.83;;;1.38;;
81026;SDS011;70506;49.320;8.446;2024-02-21T12:57:55;4.60;;;1.40;;
81026;SDS011;70506;49.320;8.446;2024-02-21T13:02:51;5.20;;;1.33;;
81026;SDS011;70506;49.320;8.446;2024-02-21T13:05:16;7.15;;;1.60;;
81026;SDS011;70506;49.320;8.446;2024-02-21T13:07:42;2.57;;;1.20;;
81026;SDS011;70506;49.320;8.446;2024-02-21T13:10:07;3.28;;;1.13;;
81026;SDS011;70506;49.320;8.446;2024-02-21T13:12:33;2.28;;;1.00;;
81026;SDS011;70506;49.320;8.446;2024-02-21T13:14:58;3.45;;;1.02;;
81026;SDS011;70506;49.320;8.446;2024-02-21T13:17:24;3.30;;;1.17;;
81026;SDS011;70506;49.320;8.446;2024-02-21T13:19:49;2.85;;;1.05;;
81026;SDS011;70506;49.320;8.446;2024-02-21T13:22:15;5.68;;;1.30;;
81026;SDS011;70506;49.320;8.446;2024-02-21T13:24:40;3.67;;;1.40;;
81026;SDS011;70506;49.320;8.446;2024-02-21T13:27:06;7.05;;;1.48;;
81026;SDS011;70506;49.320;8.446;2024-02-21T13:29:31;2.22;;;1.00;;
81026;SDS011;70506;49.320;8.446;2024-02-21T13:31:56;1.73;;;0.90;;
81026;SDS011;70506;49.320;8.446;2024-02-21T13:34:22;3.92;;;1.35;;
81026;SDS011;70506;49.320;8.446;2024-02-21T13:36:47;1.90;;;1.07;;
81026;SDS011;70506;49.320;8.446;2024-02-21T13:39:12;3.93;;;1.60;;
81026;SDS011;70506;49.320;8.446;2024-02-21T13:41:40;3.05;;;1.30;;
81026;SDS011;70506;49.320;8.446;2024-02-21T13:44:07;6.03;;;1.27;;
81026;SDS011;70506;49.320;8.446;2024-02-21T13:46:35;5.53;;;1.15;;
81026;SDS011;70506;49.320;8.446;2024-02-21T13:49:04;5.57;;;1.33;;
81026;SDS011;70506;49.320;8.446;2024-02-21T13:51:35;3.58;;;1.30;;
81026;SDS011;70506;49.320;8.446;2024-02-21T13:54:01;5.82;;;1.27;;
81026;SDS011;70506;49.320;8.446;2024-02-21T13:56:31;2.40;;;1.30;;
81026;SDS011;70506;49.320;8.446;2024-02-21T13:58:57;3.17;;;1.10;;
81026;SDS011;70506;49.320;8.446;2024-02-21T14:01:24;4.40;;;1.50;;
81026;SDS011;70506;49.320;8.446;2024-02-21T14:03:50;4.07;;;1.80;;
81026;SDS011;70506;49.320;8.446;2024-02-21T14:06:15;5.53;;;1.40;;
81026;SDS011;70506;49.320;8.446;2024-02-21T14:08:42;5.38;;;1.17;;
81026;SDS011;70506;49.320;8.446;2024-02-21T14:11:07;4.63;;;1.30;;
81026;SDS011;70506;49.320;8.446;2024-02-21T14:13:33;3.58;;;0.77;;
81026;SDS011;70506;49.320;8.446;2024-02-21T14:15:58;4.83;;;1.17;;
81026;SDS011;70506;49.320;8.446;2024-02-21T14:18:23;3.70;;;1.40;;
81026;SDS011;70506;49.320;8.446;2024-02-21T14:20:48;2.57;;;1.30;;
81026;SDS011;70506;49.320;8.446;2024-02-21T14:23:14;5.32;;;1.33;;
81026;SDS011;70506;49.320;8.446;2024-02-21T14:25:39;2.67;;;1.27;;
81026;SDS011;70506;49.320;8.446;2024-02-21T14:28:07;4.03;;;1.50;;
81026;SDS011;70506;49.320;8.446;2024-02-21T14:30:34;8.43;;;1.20;;
81026;SDS011;70506;49.320;8.446;2024-02-21T14:32:59;6.07;;;1.33;;
81026;SDS011;70506;49.320;8.446;2024-02-21T14:35:24;2.53;;;1.23;;
81026;SDS011;70506;49.320;8.446;2024-02-21T14:37:51;3.38;;;1.50;;
81026;SDS011;70506;49.320;8.446;2024-02-21T14:40:17;7.13;;;1.15;;
81026;SDS011;70506;49.320;8.446;2024-02-21T14:42:44;4.82;;;1.30;;
81026;SDS011;70506;49.320;8.446;2024-02-21T14:45:09;5.72;;;1.15;;
81026;SDS011;70506;49.320;8.446;2024-02-21T14:47:35;4.03;;;1.30;;
81026;SDS011;70506;49.320;8.446;2024-02-21T14:50:01;3.47;;;1.33;;
81026;SDS011;70506;49.320;8.446;2024-02-21T14:52:27;5.22;;;1.55;;
81026;SDS011;70506;49.320;8.446;2024-02-21T14:54:52;2.65;;;1.20;;
81026;SDS011;70506;49.320;8.446;2024-02-21T14:57:18;2.50;;;1.20;;
81026;SDS011;70506;49.320;8.446;2024-02-21T14:59:45;2.90;;;1.20;;
81026;SDS011;70506;49.320;8.446;2024-02-21T15:02:10;3.83;;;1.10;;